Time;durP1;ratioP1;P1;durP2;ratioP2;P2;SDS_P1;SDS_P2;PMS_P1;PMS_P2;Temp;Humidity;BMP_temperature;BMP_pressure;BME280_temperature;BME280_humidity;BME280_pressure;Samples;Min_cycle;Max_cycle;Signal;HPM_P1;HPM_P2
2022/12/31 00:01:59;;;;;;;17.35;6.40;;;23.70;48.00;;;;;;5009174;28;20192;-43
2022/12/31 00:04:29;;;;;;;14.43;5.53;;;23.80;48.10;;;;;;5013637;28;20720;-41
2022/12/31 00:07:00;;;;;;;17.33;6.28;;;23.80;48.00;;;;;;5013870;28;20200;-40
2022/12/31 00:09:31;;;;;;;16.88;5.97;;;23.80;47.90;;;;;;5013086;28;20578;-41
2022/12/31 00:12:03;;;;;;;14.18;5.13;;;23.80;47.90;;;;;;5013447;28;20204;-43
2022/12/31 00:14:34;;;;;;;13.10;4.85;;;23.80;47.80;;;;;;5013409;28;20602;-42
2022/12/31 00:17:05;;;;;;;13.57;4.60;;;23.90;47.80;;;;;;5012955;28;20197;-46
2022/12/31 00:19:35;;;;;;;15.43;4.95;;;23.90;47.80;;;;;;5013180;28;20231;-42
2022/12/31 00:22:06;;;;;;;13.55;4.90;;;23.90;47.80;;;;;;5013258;28;20197;-45
2022/12/31 00:24:37;;;;;;;13.82;4.53;;;24.00;47.80;;;;;;5013267;28;20232;-39
2022/12/31 00:27:09;;;;;;;11.00;4.60;;;24.00;47.70;;;;;;5013601;28;20204;-39
2022/12/31 00:29:40;;;;;;;8.63;4.25;;;24.00;47.70;;;;;;5013349;28;20208;-42
2022/12/31 00:32:10;;;;;;;10.38;4.70;;;24.00;47.60;;;;;;5013093;28;20224;-42
2022/12/31 00:34:41;;;;;;;11.70;4.45;;;24.10;47.60;;;;;;5012988;28;20221;-45
2022/12/31 00:37:12;;;;;;;9.23;4.18;;;24.10;47.60;;;;;;5012544;28;20232;-41
2022/12/31 00:39:42;;;;;;;12.82;4.35;;;24.10;47.60;;;;;;5011930;28;20232;-41
2022/12/31 00:42:15;;;;;;;12.02;4.40;;;24.10;47.50;;;;;;5012954;28;20209;-44
2022/12/31 00:44:46;;;;;;;10.95;4.25;;;24.20;47.50;;;;;;5012728;28;20220;-43
2022/12/31 00:47:16;;;;;;;11.52;4.38;;;24.20;47.50;;;;;;5012443;28;20212;-40
2022/12/31 00:49:47;;;;;;;9.43;3.83;;;24.20;47.50;;;;;;5012321;28;20664;-39
2022/12/31 00:52:18;;;;;;;9.07;3.97;;;24.20;47.40;;;;;;5011910;28;20205;-41
2022/12/31 00:54:48;;;;;;;8.60;3.90;;;24.20;47.30;;;;;;5012386;28;20240;-42
2022/12/31 00:57:21;;;;;;;6.93;3.50;;;24.20;47.30;;;;;;5012978;28;20206;-42
2022/12/31 00:59:51;;;;;;;8.63;3.95;;;24.30;47.40;;;;;;5012486;28;20231;-44
2022/12/31 01:02:22;;;;;;;9.25;3.92;;;24.30;47.40;;;;;;5010394;28;20193;-40
2022/12/31 01:04:53;;;;;;;9.05;3.33;;;24.30;47.40;;;;;;5012040;28;20227;-43
2022/12/31 01:07:24;;;;;;;8.13;3.38;;;24.30;47.20;;;;;;5012388;28;20208;-39
2022/12/31 01:09:54;;;;;;;7.93;3.17;;;24.30;47.20;;;;;;5012442;28;20208;-42
2022/12/31 01:12:27;;;;;;;8.32;3.80;;;24.40;47.30;;;;;;5012167;28;20660;-40
2022/12/31 01:14:58;;;;;;;7.68;3.20;;;24.40;47.30;;;;;;5011996;28;20228;-42
2022/12/31 01:17:28;;;;;;;6.25;2.85;;;24.40;47.20;;;;;;5011710;28;20197;-41
2022/12/31 01:19:59;;;;;;;6.93;3.30;;;24.40;47.10;;;;;;5012116;28;20228;-41
2022/12/31 01:22:30;;;;;;;7.68;3.22;;;24.40;47.10;;;;;;5012379;28;20253;-45
2022/12/31 01:25:00;;;;;;;8.50;3.33;;;24.50;47.10;;;;;;5011591;28;20217;-44
2022/12/31 01:27:33;;;;;;;8.05;3.08;;;24.50;47.10;;;;;;5011494;28;20196;-43
2022/12/31 01:30:04;;;;;;;7.78;2.97;;;24.50;47.10;;;;;;5011949;28;20197;-44
2022/12/31 01:32:35;;;;;;;5.38;2.50;;;24.50;47.00;;;;;;5011860;28;20205;-43
2022/12/31 01:35:05;;;;;;;7.97;3.00;;;24.50;46.90;;;;;;5012148;28;20221;-51
2022/12/31 01:37:36;;;;;;;7.15;3.30;;;24.60;46.90;;;;;;5012028;28;20203;-42
2022/12/31 01:40:07;;;;;;;9.02;2.55;;;24.60;47.30;;;;;;5012022;28;20232;-46
2022/12/31 01:42:40;;;;;;;5.80;2.30;;;24.60;46.80;;;;;;5011846;28;20207;-43
2022/12/31 01:45:14;;;;;;;6.15;2.65;;;24.60;46.70;;;;;;5011130;28;20217;-43
2022/12/31 01:47:48;;;;;;;5.70;2.55;;;24.60;46.70;;;;;;4999646;28;20200;-41
2022/12/31 01:50:23;;;;;;;7.03;2.70;;;24.60;46.80;;;;;;4991550;28;20193;-42
2022/12/31 01:52:56;;;;;;;5.47;2.60;;;24.70;46.70;;;;;;4991741;28;20681;-41
2022/12/31 01:55:30;;;;;;;7.97;2.95;;;24.70;46.60;;;;;;4991724;28;20208;-40
2022/12/31 01:58:07;;;;;;;6.95;2.35;;;24.70;46.60;;;;;;4992172;28;20201;-39
2022/12/31 02:00:38;;;;;;;5.57;2.30;;;24.70;46.60;;;;;;4993934;28;20221;-45
2022/12/31 02:03:09;;;;;;;5.90;2.25;;;24.70;46.50;;;;;;4991565;28;20556;-42
2022/12/31 02:05:46;;;;;;;7.18;2.42;;;24.70;46.60;;;;;;4994610;28;20200;-44
2022/12/31 02:08:17;;;;;;;6.38;2.58;;;24.80;46.40;;;;;;4991762;28;20200;-45
2022/12/31 02:10:48;;;;;;;5.50;2.72;;;24.80;46.30;;;;;;4991259;28;20208;-42
2022/12/31 02:13:21;;;;;;;6.25;2.53;;;24.80;46.30;;;;;;5006091;28;20221;-41
2022/12/31 02:15:58;;;;;;;4.45;2.03;;;24.80;46.10;;;;;;5010561;28;20211;-43
2022/12/31 02:18:37;;;;;;;6.97;2.55;;;24.80;45.90;;;;;;5010414;28;20199;-41
2022/12/31 02:21:32;;;;;;;6.30;2.35;;;24.90;45.90;;;;;;5011342;28;20533;-40
2022/12/31 02:24:27;;;;;;;3.30;1.92;;;24.90;45.80;;;;;;4999145;28;20583;-41
2022/12/31 02:27:03;;;;;;;5.43;2.13;;;24.90;45.80;;;;;;5009233;28;20704;-41
2022/12/31 02:30:02;;;;;;;4.72;2.03;;;24.90;45.90;;;;;;5011015;28;20202;-42
2022/12/31 02:32:40;;;;;;;4.10;1.75;;;24.90;45.80;;;;;;5010919;28;20205;-41
2022/12/31 02:35:15;;;;;;;6.55;2.10;;;24.90;45.90;;;;;;5011228;28;20224;-40
2022/12/31 02:37:49;;;;;;;5.25;2.40;;;25.00;45.80;;;;;;5011149;28;20556;-45
2022/12/31 02:40:23;;;;;;;4.22;1.80;;;25.00;45.80;;;;;;5011003;28;20232;-42
2022/12/31 02:42:54;;;;;;;4.25;1.90;;;25.00;45.60;;;;;;5010569;28;20196;-43
2022/12/31 02:45:32;;;;;;;5.55;2.10;;;25.00;45.60;;;;;;5010860;28;20231;-44
2022/12/31 02:48:18;;;;;;;3.67;1.65;;;25.00;45.50;;;;;;5010572;28;20571;-48
2022/12/31 02:51:00;;;;;;;2.88;1.52;;;25.00;45.30;;;;;;5010888;28;20201;-41
2022/12/31 02:53:53;;;;;;;6.55;2.15;;;25.10;45.30;;;;;;5010645;28;20236;-49
2022/12/31 02:56:29;;;;;;;5.20;1.88;;;25.10;45.20;;;;;;5010295;28;20188;-41
2022/12/31 03:02:18;;;;;;;3.90;1.50;;;25.10;45.10;;;;;;5012416;28;20212;-41
2022/12/31 03:04:52;;;;;;;4.47;1.60;;;25.10;45.30;;;;;;5014411;28;20746;-43
2022/12/31 03:07:25;;;;;;;3.83;1.60;;;25.10;45.40;;;;;;5014067;28;20196;-41
2022/12/31 03:09:56;;;;;;;3.38;1.80;;;25.10;45.50;;;;;;5014052;28;20209;-42
2022/12/31 03:15:23;;;;;;;4.53;1.73;;;25.20;45.50;;;;;;5014566;28;20586;-41
2022/12/31 03:17:59;;;;;;;4.70;1.63;;;25.20;45.40;;;;;;5014225;28;20211;-43
2022/12/31 03:23:22;;;;;;;3.70;1.50;;;25.30;45.30;;;;;;5014325;28;20220;-47
2022/12/31 03:25:52;;;;;;;2.70;1.52;;;25.30;45.40;;;;;;5014133;28;20548;-48
2022/12/31 03:28:24;;;;;;;6.10;1.90;;;25.30;45.20;;;;;;5014050;28;20219;-41
2022/12/31 03:30:57;;;;;;;6.40;1.60;;;25.30;45.20;;;;;;5013918;28;20704;-45
2022/12/31 03:33:33;;;;;;;4.32;2.03;;;25.30;45.00;;;;;;5013763;28;20252;-41
2022/12/31 03:36:07;;;;;;;4.13;1.65;;;25.30;44.90;;;;;;5013588;28;20200;-45
2022/12/31 03:38:38;;;;;;;4.28;1.60;;;25.40;45.00;;;;;;5013219;28;20196;-40
2022/12/31 03:41:11;;;;;;;3.83;1.77;;;25.30;45.00;;;;;;5014037;28;20231;-42
2022/12/31 03:43:42;;;;;;;5.20;1.50;;;25.40;45.10;;;;;;5010891;28;20213;-43
2022/12/31 03:46:12;;;;;;;5.25;1.55;;;25.40;45.10;;;;;;5013679;28;20280;-42
2022/12/31 03:48:45;;;;;;;4.85;1.83;;;25.50;45.30;;;;;;5013273;28;20197;-42
2022/12/31 03:51:16;;;;;;;3.30;1.75;;;25.50;45.20;;;;;;5013285;28;20577;-43
2022/12/31 03:53:46;;;;;;;4.60;1.90;;;25.50;45.30;;;;;;5013282;28;20232;-41
2022/12/31 03:56:17;;;;;;;5.22;1.77;;;25.50;45.20;;;;;;5010612;28;20227;-45
2022/12/31 03:58:48;;;;;;;4.47;1.80;;;25.60;45.00;;;;;;5013470;28;20201;-41
2022/12/31 04:01:18;;;;;;;4.15;1.60;;;25.60;44.80;;;;;;5013690;28;20229;-39
2022/12/31 04:03:51;;;;;;;6.22;1.77;;;25.60;44.70;;;;;;5013300;28;20217;-45
2022/12/31 04:06:21;;;;;;;4.93;1.60;;;25.60;44.70;;;;;;5012717;28;20212;-40
2022/12/31 04:08:52;;;;;;;3.70;1.75;;;25.60;44.50;;;;;;5013643;28;20197;-42
2022/12/31 04:11:23;;;;;;;4.78;1.52;;;25.70;44.40;;;;;;5012767;28;20197;-40
2022/12/31 04:13:53;;;;;;;4.20;1.42;;;25.70;44.40;;;;;;5012469;28;20677;-42
2022/12/31 04:16:24;;;;;;;3.35;1.65;;;25.70;44.50;;;;;;5009424;28;20193;-44
2022/12/31 04:18:57;;;;;;;3.72;1.58;;;25.70;44.40;;;;;;5001365;28;20206;-40
2022/12/31 04:21:27;;;;;;;4.68;1.88;;;25.70;44.60;;;;;;4997078;28;20252;-39
2022/12/31 04:23:58;;;;;;;3.67;1.40;;;25.70;44.40;;;;;;4992672;28;20210;-40
2022/12/31 04:26:29;;;;;;;3.08;1.38;;;25.80;44.60;;;;;;4992674;28;20666;-40
2022/12/31 04:29:00;;;;;;;3.85;1.40;;;25.70;44.70;;;;;;4993224;28;20243;-42
2022/12/31 04:31:30;;;;;;;3.55;1.50;;;25.80;44.30;;;;;;4992781;28;20575;-45
2022/12/31 04:34:03;;;;;;;5.65;1.60;;;25.80;44.30;;;;;;4998488;28;20213;-39
2022/12/31 04:36:34;;;;;;;5.22;1.50;;;25.80;43.90;;;;;;4999008;28;20205;-39
2022/12/31 04:39:05;;;;;;;3.92;1.55;;;25.80;43.90;;;;;;4992411;28;20202;-43
2022/12/31 04:41:35;;;;;;;6.38;1.80;;;25.80;43.80;;;;;;4993095;28;20225;-39
2022/12/31 04:44:06;;;;;;;4.88;1.92;;;25.80;43.60;;;;;;5011669;28;20216;-41
2022/12/31 04:46:37;;;;;;;4.55;1.88;;;25.80;43.50;;;;;;5011409;28;20205;-49
2022/12/31 04:49:10;;;;;;;4.82;1.60;;;25.80;43.30;;;;;;5011544;28;20209;-47
2022/12/31 04:51:40;;;;;;;5.47;1.80;;;25.80;43.20;;;;;;5012121;28;20231;-41
2022/12/31 04:54:11;;;;;;;3.10;1.48;;;25.80;43.40;;;;;;5011446;28;20228;-43
2022/12/31 04:56:42;;;;;;;3.75;1.55;;;25.80;43.50;;;;;;5010348;28;20208;-40
2022/12/31 04:59:13;;;;;;;3.42;1.63;;;25.90;43.50;;;;;;5011231;28;20211;-41
2022/12/31 05:01:43;;;;;;;4.72;1.55;;;25.90;43.60;;;;;;5011779;28;20224;-41
2022/12/31 05:04:16;;;;;;;3.80;1.50;;;25.90;43.30;;;;;;5012077;28;20216;-42
2022/12/31 05:06:47;;;;;;;2.95;1.27;;;25.90;43.20;;;;;;5011009;28;20196;-44
2022/12/31 05:09:17;;;;;;;3.92;1.20;;;25.90;43.40;;;;;;5012604;28;20600;-40
2022/12/31 05:11:48;;;;;;;4.50;1.75;;;25.90;43.10;;;;;;5011259;28;20216;-41
2022/12/31 05:14:19;;;;;;;3.60;1.55;;;25.90;42.80;;;;;;5011592;28;20224;-39
2022/12/31 05:16:49;;;;;;;3.85;1.60;;;25.90;42.80;;;;;;5011464;28;20197;-40
2022/12/31 05:19:22;;;;;;;5.10;1.63;;;25.90;42.70;;;;;;5010589;28;20212;-39
2022/12/31 05:24:36;;;;;;;5.50;1.63;;;25.90;42.50;;;;;;5009202;28;20213;-39
2022/12/31 05:27:07;;;;;;;4.55;1.60;;;25.90;42.50;;;;;;5011499;28;20208;-39
2022/12/31 05:29:37;;;;;;;4.22;1.48;;;25.90;42.50;;;;;;5011407;28;20200;-39
2022/12/31 05:32:08;;;;;;;4.00;1.52;;;25.90;42.50;;;;;;5010581;28;20197;-39
2022/12/31 05:34:41;;;;;;;3.63;1.40;;;25.90;42.50;;;;;;4991044;28;20233;-39
2022/12/31 05:37:11;;;;;;;3.35;1.73;;;25.90;42.50;;;;;;5001420;28;20672;-40
2022/12/31 05:39:42;;;;;;;4.85;1.48;;;25.90;42.50;;;;;;5010893;28;20201;-42
2022/12/31 05:42:13;;;;;;;2.42;1.38;;;25.90;42.30;;;;;;5011381;28;20212;-40
2022/12/31 05:44:44;;;;;;;3.10;1.50;;;25.90;42.30;;;;;;5011768;28;20220;-41
2022/12/31 05:47:15;;;;;;;4.75;1.70;;;25.90;42.30;;;;;;5007518;28;20593;-40
2022/12/31 05:49:47;;;;;;;4.75;1.60;;;25.90;42.10;;;;;;4991912;28;20197;-42
2022/12/31 05:52:18;;;;;;;2.92;1.45;;;25.90;42.00;;;;;;4991400;28;20201;-41
2022/12/31 05:54:49;;;;;;;3.83;1.80;;;25.90;42.10;;;;;;4994089;28;20224;-39
2022/12/31 05:57:19;;;;;;;4.53;1.42;;;25.90;42.00;;;;;;4990245;28;20205;-39
2022/12/31 05:59:52;;;;;;;5.40;1.27;;;25.80;42.00;;;;;;4990653;28;20216;-40
2022/12/31 06:02:23;;;;;;;4.63;1.48;;;25.80;42.00;;;;;;4990284;28;20263;-39
2022/12/31 06:04:55;;;;;;;4.30;1.80;;;25.80;42.00;;;;;;4994430;28;20715;-44
2022/12/31 06:07:26;;;;;;;7.50;2.30;;;25.80;42.10;;;;;;5010390;28;20200;-47
2022/12/31 06:09:56;;;;;;;7.47;1.80;;;25.80;42.20;;;;;;5009355;28;20209;-46
2022/12/31 06:12:27;;;;;;;5.50;1.88;;;25.80;42.10;;;;;;5010034;28;20200;-39
2022/12/31 06:14:58;;;;;;;3.80;1.38;;;25.80;42.00;;;;;;5009548;28;20221;-40
2022/12/31 06:17:30;;;;;;;4.70;1.73;;;25.80;42.00;;;;;;5009684;28;20216;-39
2022/12/31 06:20:03;;;;;;;5.18;1.67;;;25.80;41.90;;;;;;5010393;28;20200;-43
2022/12/31 06:22:34;;;;;;;5.53;1.83;;;25.70;41.90;;;;;;5010945;28;20272;-42
2022/12/31 06:25:04;;;;;;;6.78;1.70;;;25.80;42.00;;;;;;5009833;28;20213;-40
2022/12/31 06:27:35;;;;;;;5.07;2.00;;;25.70;41.80;;;;;;5009483;28;20680;-42
2022/12/31 06:30:06;;;;;;;4.95;2.00;;;25.70;41.80;;;;;;5010411;28;20196;-44
2022/12/31 06:32:38;;;;;;;4.97;1.63;;;25.70;41.80;;;;;;5009850;28;20197;-42
2022/12/31 06:35:11;;;;;;;4.57;2.03;;;25.70;41.90;;;;;;5010280;28;20673;-44
2022/12/31 06:37:42;;;;;;;6.22;1.85;;;25.80;41.90;;;;;;5010206;28;20657;-40
2022/12/31 06:40:14;;;;;;;7.13;1.70;;;25.80;41.80;;;;;;5010451;28;20205;-43
2022/12/31 06:42:44;;;;;;;11.77;2.10;;;25.70;41.80;;;;;;5009488;28;20234;-45
2022/12/31 06:45:15;;;;;;;6.18;1.52;;;25.70;41.90;;;;;;5010778;28;20219;-40
2022/12/31 06:47:46;;;;;;;6.22;2.05;;;25.70;41.90;;;;;;5010119;28;20204;-38
2022/12/31 06:50:18;;;;;;;5.30;1.88;;;25.70;41.90;;;;;;5010735;28;20216;-40
2022/12/31 06:52:49;;;;;;;4.93;1.92;;;25.70;41.90;;;;;;5010044;28;20213;-41
2022/12/31 06:55:20;;;;;;;4.43;1.60;;;25.70;41.90;;;;;;5010290;28;20201;-40
2022/12/31 06:57:51;;;;;;;4.07;1.67;;;25.70;42.00;;;;;;5009883;28;20211;-40
2022/12/31 07:00:23;;;;;;;7.32;1.80;;;25.60;41.80;;;;;;5007806;28;20676;-41
2022/12/31 07:03:12;;;;;;;5.30;1.70;;;25.70;41.80;;;;;;5001364;28;20193;-38
2022/12/31 07:05:48;;;;;;;5.68;1.75;;;25.70;41.80;;;;;;5008613;28;20668;-39
2022/12/31 07:08:38;;;;;;;3.63;1.52;;;25.70;41.80;;;;;;4995632;28;20205;-41
2022/12/31 07:11:16;;;;;;;3.65;1.73;;;25.60;41.70;;;;;;4979705;28;20208;-41
2022/12/31 07:14:08;;;;;;;3.53;1.63;;;25.60;41.80;;;;;;5009253;28;20233;-45
2022/12/31 07:16:49;;;;;;;5.10;1.60;;;25.60;41.80;;;;;;5006555;28;20232;-38
2022/12/31 07:19:30;;;;;;;3.53;1.60;;;25.60;41.90;;;;;;4990774;28;20650;-40
2022/12/31 07:22:04;;;;;;;3.38;1.70;;;25.60;42.00;;;;;;4990113;28;20596;-40
2022/12/31 07:24:35;;;;;;;3.33;1.30;;;25.50;41.90;;;;;;4990113;28;20221;-44
2022/12/31 07:27:29;;;;;;;3.00;1.40;;;25.50;42.00;;;;;;4999910;28;20650;-38
2022/12/31 07:30:06;;;;;;;3.33;1.45;;;25.50;42.00;;;;;;5010483;28;20196;-40
2022/12/31 07:33:03;;;;;;;2.80;1.55;;;25.50;42.00;;;;;;5010347;28;20672;-39
2022/12/31 07:35:43;;;;;;;2.92;1.42;;;25.50;42.20;;;;;;5010437;28;20193;-38
2022/12/31 07:38:24;;;;;;;4.28;1.60;;;25.40;42.10;;;;;;5010410;28;20199;-38
2022/12/31 07:41:05;;;;;;;2.95;1.42;;;25.40;42.20;;;;;;5010134;28;20593;-38
2022/12/31 07:43:42;;;;;;;2.75;1.33;;;25.40;42.30;;;;;;5003105;28;20224;-40
2022/12/31 07:46:18;;;;;;;2.72;1.30;;;25.30;42.30;;;;;;4997060;28;20204;-40
2022/12/31 07:48:49;;;;;;;3.72;1.50;;;25.30;42.30;;;;;;4997736;28;20204;-44
2022/12/31 07:51:20;;;;;;;4.18;1.77;;;25.30;42.40;;;;;;4996221;28;20566;-38
2022/12/31 07:53:53;;;;;;;4.05;1.48;;;25.30;42.50;;;;;;4993673;28;20221;-41
2022/12/31 07:56:24;;;;;;;3.00;1.42;;;25.30;42.50;;;;;;5011483;28;20201;-42
2022/12/31 07:59:06;;;;;;;3.92;1.75;;;25.20;42.60;;;;;;4994906;28;20220;-40
2022/12/31 08:01:42;;;;;;;2.85;1.40;;;25.20;42.60;;;;;;4993797;28;20232;-41
2022/12/31 08:04:22;;;;;;;3.08;1.60;;;25.20;42.60;;;;;;4993558;28;20217;-39
2022/12/31 08:07:02;;;;;;;2.40;1.52;;;25.10;42.60;;;;;;4993654;28;20194;-40
2022/12/31 08:09:48;;;;;;;2.20;1.15;;;25.10;42.70;;;;;;4993644;28;20197;-42
2022/12/31 08:12:20;;;;;;;3.17;1.60;;;25.10;42.70;;;;;;5000220;28;20281;-41
2022/12/31 08:14:51;;;;;;;3.67;1.40;;;25.10;42.80;;;;;;5013087;28;20223;-42
2022/12/31 08:17:22;;;;;;;3.13;1.73;;;25.00;42.80;;;;;;5013054;28;20209;-38
2022/12/31 08:19:53;;;;;;;3.80;1.60;;;25.00;42.80;;;;;;5013062;28;20200;-40
2022/12/31 08:22:36;;;;;;;3.00;1.48;;;25.00;42.90;;;;;;5012951;28;20228;-40
2022/12/31 08:25:18;;;;;;;4.25;1.70;;;24.90;42.90;;;;;;5013098;28;20220;-44
2022/12/31 08:27:59;;;;;;;4.22;1.60;;;24.90;43.00;;;;;;5013119;28;20207;-39
2022/12/31 08:30:37;;;;;;;3.25;1.60;;;24.90;43.00;;;;;;5013001;28;20204;-42
2022/12/31 08:33:13;;;;;;;3.10;1.40;;;24.90;43.00;;;;;;5012609;28;20197;-39
2022/12/31 08:35:57;;;;;;;3.30;1.30;;;24.80;43.10;;;;;;5012854;28;20203;-41
2022/12/31 08:38:33;;;;;;;3.90;1.60;;;24.80;43.10;;;;;;5012744;28;20200;-38
2022/12/31 08:41:14;;;;;;;3.78;1.50;;;24.80;43.10;;;;;;5012732;28;20231;-41
2022/12/31 08:43:55;;;;;;;2.75;1.45;;;24.80;43.20;;;;;;5012848;28;20229;-39
2022/12/31 08:46:33;;;;;;;2.78;1.50;;;24.70;43.20;;;;;;5012706;28;20197;-41
2022/12/31 08:49:04;;;;;;;2.40;1.30;;;24.70;43.20;;;;;;5012285;28;20200;-42
2022/12/31 08:51:35;;;;;;;2.33;1.40;;;24.70;43.30;;;;;;5012860;28;20212;-39
2022/12/31 08:54:06;;;;;;;2.45;1.40;;;24.70;43.30;;;;;;5012354;28;20221;-41
2022/12/31 08:56:47;;;;;;;3.22;1.60;;;24.60;43.30;;;;;;5013009;28;20197;-39
2022/12/31 08:59:31;;;;;;;1.83;1.23;;;24.60;43.30;;;;;;5011109;28;20204;-41
2022/12/31 09:02:21;;;;;;;3.08;1.63;;;24.60;43.40;;;;;;5011948;28;20231;-44
2022/12/31 09:05:03;;;;;;;2.13;1.52;;;24.60;43.40;;;;;;5012005;28;20224;-38
2022/12/31 09:07:37;;;;;;;3.17;1.27;;;24.50;43.40;;;;;;5011435;28;20201;-42
2022/12/31 09:10:19;;;;;;;2.10;1.30;;;24.50;43.50;;;;;;5011646;28;20196;-48
2022/12/31 09:13:00;;;;;;;2.10;1.23;;;24.50;43.60;;;;;;5012129;28;20266;-42
2022/12/31 09:15:36;;;;;;;2.58;1.30;;;24.50;43.60;;;;;;5012175;28;20262;-37
2022/12/31 09:18:09;;;;;;;2.70;1.75;;;24.40;43.60;;;;;;5011802;28;20792;-43
2022/12/31 09:20:40;;;;;;;2.03;1.08;;;24.40;43.70;;;;;;5011975;28;20204;-38
2022/12/31 09:23:12;;;;;;;2.60;1.30;;;24.40;43.70;;;;;;5011729;28;20232;-40
2022/12/31 09:25:47;;;;;;;2.45;1.50;;;24.40;43.70;;;;;;5011850;28;20204;-40
2022/12/31 09:28:36;;;;;;;3.05;1.23;;;24.30;43.60;;;;;;5011749;28;20204;-38
2022/12/31 09:31:12;;;;;;;1.88;1.23;;;24.30;43.60;;;;;;5012194;28;20208;-42
2022/12/31 09:33:52;;;;;;;2.65;1.33;;;24.30;43.70;;;;;;5012214;28;20598;-41
2022/12/31 09:36:30;;;;;;;3.30;1.55;;;24.30;43.70;;;;;;5012124;28;20200;-38
2022/12/31 09:39:07;;;;;;;2.65;1.60;;;24.30;43.80;;;;;;5011623;28;20211;-44
2022/12/31 09:42:03;;;;;;;2.28;1.40;;;24.20;43.80;;;;;;4995478;28;20221;-40
2022/12/31 09:45:30;;;;;;;2.75;1.50;;;24.20;43.80;;;;;;5011809;28;20955;-45
2022/12/31 09:48:32;;;;;;;3.15;1.35;;;24.20;43.90;;;;;;4936561;29;20721;-41
2022/12/31 09:51:15;;;;;;;2.10;1.20;;;24.20;43.90;;;;;;4946698;29;20198;-45
2022/12/31 09:54:04;;;;;;;2.97;1.30;;;24.20;44.10;;;;;;4990395;28;20228;-42
2022/12/31 09:56:41;;;;;;;3.97;1.42;;;24.10;44.10;;;;;;4992391;28;20285;-38
2022/12/31 09:59:18;;;;;;;3.08;1.67;;;24.10;44.20;;;;;;4991821;28;20205;-39
2022/12/31 10:01:57;;;;;;;3.25;1.40;;;24.00;44.20;;;;;;4995881;28;20224;-38
2022/12/31 10:05:01;;;;;;;2.45;1.50;;;24.00;44.20;;;;;;5003504;28;20220;-39
2022/12/31 10:07:45;;;;;;;2.53;1.40;;;24.00;44.20;;;;;;5011172;28;20211;-39
2022/12/31 10:10:21;;;;;;;3.05;1.52;;;24.00;44.20;;;;;;5008614;28;20196;-39
2022/12/31 10:13:35;;;;;;;2.80;1.30;;;24.00;44.30;;;;;;5003384;28;20217;-38
2022/12/31 10:16:33;;;;;;;3.63;1.50;;;23.90;44.30;;;;;;5011321;28;20207;-44
2022/12/31 10:19:39;;;;;;;2.60;1.33;;;23.90;44.20;;;;;;5004987;28;20205;-40
2022/12/31 10:22:26;;;;;;;1.92;1.05;;;23.90;44.30;;;;;;4987368;28;20247;-39
2022/12/31 10:25:17;;;;;;;2.53;1.30;;;23.90;44.40;;;;;;5008041;28;20229;-40
2022/12/31 10:27:54;;;;;;;1.92;1.30;;;23.80;44.50;;;;;;5011114;28;20661;-41
2022/12/31 10:30:25;;;;;;;2.10;1.42;;;23.80;44.60;;;;;;5011243;28;20671;-39
2022/12/31 10:33:09;;;;;;;2.17;1.30;;;23.80;44.60;;;;;;5010680;28;20197;-39
2022/12/31 10:35:48;;;;;;;2.13;1.40;;;23.80;44.60;;;;;;4991413;28;20208;-42
2022/12/31 10:38:35;;;;;;;1.80;1.20;;;23.80;44.70;;;;;;4991187;28;20204;-42
2022/12/31 10:41:43;;;;;;;2.10;1.27;;;23.70;44.60;;;;;;4990921;28;20201;-42
2022/12/31 10:44:40;;;;;;;2.15;1.10;;;23.70;44.60;;;;;;4991244;28;20221;-39
2022/12/31 10:47:49;;;;;;;2.67;1.30;;;23.70;44.60;;;;;;4991692;28;20204;-41
2022/12/31 10:51:01;;;;;;;1.88;1.13;;;23.70;44.60;;;;;;4986391;28;20208;-43
2022/12/31 10:53:56;;;;;;;5.32;1.90;;;23.60;44.70;;;;;;4991319;28;20231;-41
2022/12/31 10:57:06;;;;;;;5.15;1.58;;;23.60;45.10;;;;;;5003790;28;20280;-43
2022/12/31 10:59:59;;;;;;;3.08;1.45;;;23.60;45.20;;;;;;5010869;28;20279;-43
2022/12/31 11:02:58;;;;;;;2.65;1.55;;;23.50;45.20;;;;;;5010499;28;20224;-39
2022/12/31 11:06:06;;;;;;;4.10;1.75;;;23.50;45.20;;;;;;5009676;28;20205;-45
2022/12/31 11:09:10;;;;;;;3.03;1.52;;;23.50;45.20;;;;;;5010748;28;20197;-40
2022/12/31 11:11:49;;;;;;;2.13;1.35;;;23.50;45.30;;;;;;5004605;28;20203;-40
2022/12/31 11:14:44;;;;;;;3.03;1.40;;;23.40;45.20;;;;;;5009979;28;20217;-39
2022/12/31 11:17:35;;;;;;;3.00;1.33;;;23.40;45.30;;;;;;5002804;28;20219;-39
2022/12/31 11:20:49;;;;;;;3.28;1.48;;;23.40;45.30;;;;;;4989713;28;20567;-38
2022/12/31 11:23:34;;;;;;;4.07;1.80;;;23.40;45.30;;;;;;4982438;28;20245;-39
2022/12/31 11:26:15;;;;;;;3.03;1.52;;;23.30;45.30;;;;;;4994217;28;20197;-39
2022/12/31 11:29:21;;;;;;;4.00;1.63;;;23.30;45.30;;;;;;4993891;28;20197;-39
2022/12/31 11:32:08;;;;;;;4.43;2.05;;;23.30;45.30;;;;;;4981667;28;20205;-41
2022/12/31 11:35:07;;;;;;;3.67;1.42;;;23.30;45.30;;;;;;4993754;28;20583;-43
2022/12/31 11:37:46;;;;;;;3.85;1.50;;;23.30;45.40;;;;;;4993933;28;20205;-43
2022/12/31 11:40:40;;;;;;;2.78;1.20;;;23.20;45.40;;;;;;5003253;28;20192;-40
2022/12/31 11:43:23;;;;;;;2.75;1.35;;;23.20;45.50;;;;;;5013059;28;20246;-42
2022/12/31 11:46:34;;;;;;;3.55;1.40;;;23.20;45.40;;;;;;5013922;28;20200;-42
2022/12/31 11:49:51;;;;;;;5.07;1.48;;;23.10;45.40;;;;;;5000523;28;20198;-42
2022/12/31 11:52:45;;;;;;;3.92;1.80;;;23.10;45.50;;;;;;4934047;29;20738;-43
2022/12/31 11:55:36;;;;;;;2.03;1.23;;;23.10;45.50;;;;;;4933058;29;20670;-43
2022/12/31 11:58:15;;;;;;;2.60;1.30;;;23.10;45.50;;;;;;4984978;28;20684;-45
2022/12/31 12:00:53;;;;;;;3.33;1.50;;;23.00;45.50;;;;;;4993492;28;20256;-38
2022/12/31 12:03:26;;;;;;;3.13;1.50;;;23.00;45.40;;;;;;4993609;28;20325;-38
2022/12/31 12:05:59;;;;;;;1.98;1.23;;;23.00;45.50;;;;;;4993319;28;20208;-38
2022/12/31 12:08:34;;;;;;;3.97;1.60;;;23.00;45.50;;;;;;4993308;28;20201;-43
2022/12/31 12:11:09;;;;;;;2.25;1.42;;;23.00;45.50;;;;;;4993743;28;20201;-41
2022/12/31 12:13:40;;;;;;;2.60;1.40;;;23.00;45.60;;;;;;5011629;28;20586;-40
2022/12/31 12:16:11;;;;;;;1.80;1.27;;;22.90;45.60;;;;;;5012432;28;20216;-42
2022/12/31 12:18:46;;;;;;;2.78;1.25;;;22.90;45.60;;;;;;5013088;28;20698;-42
2022/12/31 12:21:19;;;;;;;2.65;1.52;;;22.90;45.60;;;;;;5012433;28;20195;-43
2022/12/31 12:24:00;;;;;;;3.53;1.60;;;22.90;45.60;;;;;;5012542;28;20244;-42
2022/12/31 12:26:35;;;;;;;2.15;1.17;;;22.90;45.70;;;;;;5012737;28;20209;-45
2022/12/31 12:29:13;;;;;;;3.25;1.20;;;22.80;45.60;;;;;;5012497;28;20196;-41
2022/12/31 12:31:57;;;;;;;2.17;1.50;;;22.80;45.70;;;;;;5012790;28;20331;-43
2022/12/31 12:34:32;;;;;;;2.83;1.17;;;22.80;45.60;;;;;;5012551;28;20217;-41
2022/12/31 12:37:03;;;;;;;2.83;1.17;;;22.80;45.60;;;;;;5013600;28;20201;-42
2022/12/31 12:39:35;;;;;;;1.98;1.13;;;22.70;45.60;;;;;;5013319;28;20211;-41
2022/12/31 12:42:09;;;;;;;1.90;1.10;;;22.70;45.50;;;;;;5013247;28;20197;-40
2022/12/31 12:44:40;;;;;;;1.98;1.10;;;22.70;45.60;;;;;;5013417;28;20221;-43
2022/12/31 12:47:15;;;;;;;1.48;1.10;;;22.70;45.50;;;;;;5013329;28;20243;-40
2022/12/31 12:49:50;;;;;;;2.53;1.20;;;22.70;45.60;;;;;;5012836;28;20203;-40
2022/12/31 12:52:47;;;;;;;1.55;1.10;;;22.60;45.60;;;;;;5012452;28;20664;-39
2022/12/31 12:55:24;;;;;;;2.17;1.17;;;22.60;45.70;;;;;;5012229;28;20231;-41
2022/12/31 12:58:04;;;;;;;2.20;1.10;;;22.50;45.60;;;;;;5013207;28;20205;-42
2022/12/31 13:00:39;;;;;;;2.88;1.23;;;22.50;45.70;;;;;;5012650;28;20200;-39
2022/12/31 13:03:36;;;;;;;3.60;1.40;;;22.50;45.70;;;;;;5012847;28;20227;-40
2022/12/31 13:06:27;;;;;;;2.90;1.38;;;22.50;45.80;;;;;;5012289;28;20197;-41
2022/12/31 13:09:17;;;;;;;2.15;1.23;;;22.40;45.70;;;;;;5001973;28;20205;-41
2022/12/31 13:11:59;;;;;;;2.42;1.05;;;22.40;45.70;;;;;;5000948;28;20190;-43
2022/12/31 13:14:37;;;;;;;1.60;0.93;;;22.40;45.60;;;;;;5001307;28;20218;-42
2022/12/31 13:17:25;;;;;;;2.42;1.27;;;22.40;45.70;;;;;;5001222;28;20196;-42
2022/12/31 13:20:03;;;;;;;1.48;1.20;;;22.40;45.70;;;;;;5002480;28;20565;-39
2022/12/31 13:22:39;;;;;;;1.35;1.20;;;22.40;45.60;;;;;;5002215;28;20258;-39
2022/12/31 13:25:23;;;;;;;2.72;1.20;;;22.40;45.70;;;;;;5001843;28;20217;-39
2022/12/31 13:27:56;;;;;;;2.38;1.00;;;22.30;45.70;;;;;;5002320;28;20190;-42
2022/12/31 13:30:33;;;;;;;2.25;1.23;;;22.30;45.70;;;;;;5001212;28;20567;-40
2022/12/31 13:33:07;;;;;;;3.22;1.35;;;22.30;45.80;;;;;;4999815;28;20576;-38
2022/12/31 13:35:42;;;;;;;1.88;1.02;;;22.20;45.80;;;;;;4999483;28;20193;-40
2022/12/31 13:38:22;;;;;;;2.45;1.05;;;22.20;45.80;;;;;;5001281;28;20213;-42
2022/12/31 13:40:59;;;;;;;2.42;1.00;;;22.20;45.80;;;;;;5001577;28;20884;-41
2022/12/31 13:43:39;;;;;;;2.05;1.10;;;22.10;45.80;;;;;;4999465;28;20712;-41
2022/12/31 13:46:25;;;;;;;2.45;0.93;;;22.20;45.90;;;;;;4991715;28;20201;-39
2022/12/31 13:48:58;;;;;;;1.80;0.95;;;22.10;45.80;;;;;;4991710;28;21217;-41
2022/12/31 13:51:38;;;;;;;2.47;1.13;;;22.10;45.80;;;;;;5008705;28;20189;-41